N733MX KBNA-KEQY
Flight info
| Callsign | N733MX |
|---|---|
| Flight time | N/A |
| Altitude | 15000 |
| Route | NASH7 BURME VXV LIINN3 |
| Aircraft | SR22/L-V/N |
Departure
| Time | 2026-05-08 00:55 |
|---|---|
| Airport | Nashville International Airport (KBNA) |
Arrival
| Time | N/A |
|---|---|
| Airport | Charlotte-Monroe Executive Airport (KEQY) |
| Time | Latitude | Longitude | Altitude | Speed | Heading |
|---|---|---|---|---|---|
| 2026-05-08 00:38 | 36.12654 | -86.68644 | 578 ft | 0 kts | 60° |
| 2026-05-08 00:49 | 36.12628 | -86.68598 | 577 ft | 13 kts | 183° |
| 2026-05-08 00:49 | 36.12544 | -86.68531 | 579 ft | 17 kts | 135° |
| 2026-05-08 00:49 | 36.12426 | -86.68549 | 583 ft | 19 kts | 199° |
| 2026-05-08 00:49 | 36.12295 | -86.68601 | 585 ft | 21 kts | 197° |
| 2026-05-08 00:50 | 36.12156 | -86.68657 | 590 ft | 21 kts | 197° |
| 2026-05-08 00:50 | 36.12018 | -86.68709 | 596 ft | 21 kts | 199° |
| 2026-05-08 00:50 | 36.11880 | -86.68765 | 602 ft | 21 kts | 198° |
| 2026-05-08 00:50 | 36.11823 | -86.68768 | 609 ft | 0 kts | 155° |
| 2026-05-08 00:53 | 36.11816 | -86.68762 | 617 ft | 11 kts | 145° |
| 2026-05-08 00:53 | 36.11862 | -86.68614 | 602 ft | 27 kts | 21° |
| 2026-05-08 00:54 | 36.12155 | -86.68498 | 589 ft | 73 kts | 18° |
| 2026-05-08 00:54 | 36.12761 | -86.68272 | 648 ft | 102 kts | 18° |
| 2026-05-08 00:54 | 36.13500 | -86.67986 | 821 ft | 117 kts | 17° |
| 2026-05-08 00:54 | 36.14269 | -86.67706 | 1173 ft | 112 kts | 17° |
| 2026-05-08 00:55 | 36.14996 | -86.67412 | 1552 ft | 110 kts | 19° |
| 2026-05-08 00:55 | 36.15720 | -86.67133 | 1927 ft | 107 kts | 18° |
| 2026-05-08 00:55 | 36.16427 | -86.66858 | 2294 ft | 106 kts | 18° |
| 2026-05-08 00:55 | 36.16962 | -86.66310 | 2701 ft | 105 kts | 71° |
| 2026-05-08 00:56 | 36.17170 | -86.65431 | 3076 ft | 106 kts | 69° |
| 2026-05-08 00:56 | 36.17249 | -86.64540 | 3455 ft | 107 kts | 92° |
| 2026-05-08 00:56 | 36.17209 | -86.63621 | 3826 ft | 107 kts | 90° |
| 2026-05-08 00:56 | 36.17170 | -86.62703 | 4199 ft | 106 kts | 91° |
| 2026-05-08 00:57 | 36.17128 | -86.61787 | 4583 ft | 106 kts | 90° |
| 2026-05-08 00:57 | 36.17043 | -86.60879 | 4962 ft | 107 kts | 106° |
| 2026-05-08 00:57 | 36.16807 | -86.60016 | 5336 ft | 107 kts | 107° |
| 2026-05-08 00:57 | 36.16568 | -86.59139 | 5712 ft | 107 kts | 108° |
| 2026-05-08 00:58 | 36.16325 | -86.58262 | 6086 ft | 109 kts | 108° |
| 2026-05-08 00:58 | 36.16066 | -86.57348 | 6404 ft | 115 kts | 109° |
| 2026-05-08 00:58 | 36.15790 | -86.56391 | 6711 ft | 120 kts | 109° |
| 2026-05-08 00:58 | 36.15505 | -86.55407 | 7007 ft | 125 kts | 109° |
| 2026-05-08 00:59 | 36.15205 | -86.54377 | 7312 ft | 129 kts | 109° |
| 2026-05-08 00:59 | 36.14889 | -86.53308 | 7614 ft | 133 kts | 110° |
| 2026-05-08 00:59 | 36.14562 | -86.52213 | 7921 ft | 137 kts | 110° |
| 2026-05-08 00:59 | 36.14227 | -86.51105 | 8231 ft | 141 kts | 111° |
| 2026-05-08 01:00 | 36.13876 | -86.49953 | 8540 ft | 145 kts | 111° |
| 2026-05-08 01:00 | 36.13512 | -86.48768 | 8851 ft | 148 kts | 111° |
| 2026-05-08 01:00 | 36.13138 | -86.47565 | 9158 ft | 151 kts | 111° |
| 2026-05-08 01:00 | 36.12764 | -86.46356 | 9486 ft | 154 kts | 111° |
| 2026-05-08 01:01 | 36.12380 | -86.45104 | 9807 ft | 157 kts | 111° |
| 2026-05-08 01:01 | 36.11992 | -86.43830 | 10114 ft | 160 kts | 111° |
| 2026-05-08 01:01 | 36.11502 | -86.42598 | 10406 ft | 159 kts | 135° |
| 2026-05-08 01:01 | 36.10809 | -86.41515 | 10679 ft | 165 kts | 118° |
| 2026-05-08 01:02 | 36.10612 | -86.40135 | 10950 ft | 167 kts | 91° |
| 2026-05-08 01:02 | 36.10562 | -86.38691 | 11249 ft | 169 kts | 92° |
| 2026-05-08 01:02 | 36.10470 | -86.37247 | 11544 ft | 171 kts | 95° |
| 2026-05-08 01:02 | 36.10346 | -86.35771 | 11839 ft | 173 kts | 96° |
| 2026-05-08 01:03 | 36.10220 | -86.34279 | 12137 ft | 175 kts | 96° |
| 2026-05-08 01:03 | 36.10114 | -86.32764 | 12442 ft | 177 kts | 90° |
| 2026-05-08 01:03 | 36.10021 | -86.31252 | 12742 ft | 179 kts | 91° |
| 2026-05-08 01:03 | 36.09902 | -86.29703 | 13046 ft | 182 kts | 92° |
| 2026-05-08 01:04 | 36.09775 | -86.28137 | 13354 ft | 184 kts | 92° |
| 2026-05-08 01:04 | 36.09648 | -86.26576 | 13671 ft | 185 kts | 93° |
| 2026-05-08 01:04 | 36.09520 | -86.24973 | 13965 ft | 187 kts | 93° |
| 2026-05-08 01:04 | 36.09393 | -86.23359 | 14231 ft | 189 kts | 93° |
| 2026-05-08 01:05 | 36.09270 | -86.21757 | 14509 ft | 191 kts | 93° |
| 2026-05-08 01:05 | 36.09144 | -86.20108 | 14793 ft | 192 kts | 93° |
| 2026-05-08 01:05 | 36.09016 | -86.18436 | 14994 ft | 202 kts | 92° |
| 2026-05-08 01:05 | 36.08884 | -86.16652 | 15012 ft | 219 kts | 93° |
| 2026-05-08 01:06 | 36.08741 | -86.14715 | 15012 ft | 232 kts | 93° |
| 2026-05-08 01:06 | 36.08588 | -86.12686 | 15011 ft | 241 kts | 94° |
| 2026-05-08 01:06 | 36.08427 | -86.10595 | 15014 ft | 247 kts | 94° |
| 2026-05-08 01:06 | 36.08262 | -86.08460 | 15009 ft | 251 kts | 94° |
| 2026-05-08 01:07 | 36.08092 | -86.06298 | 15008 ft | 253 kts | 94° |
| 2026-05-08 01:07 | 36.07922 | -86.04147 | 15012 ft | 255 kts | 94° |
| 2026-05-08 01:07 | 36.07748 | -86.01960 | 15010 ft | 256 kts | 94° |
| 2026-05-08 01:07 | 36.07572 | -85.99761 | 15014 ft | 256 kts | 94° |
| 2026-05-08 01:08 | 36.07398 | -85.97563 | 15006 ft | 257 kts | 94° |
| 2026-05-08 01:08 | 36.07226 | -85.95388 | 15011 ft | 257 kts | 94° |
| 2026-05-08 01:08 | 36.07052 | -85.93180 | 15010 ft | 258 kts | 94° |
| 2026-05-08 01:08 | 36.06879 | -85.90970 | 15006 ft | 258 kts | 94° |
| 2026-05-08 01:09 | 36.06703 | -85.88760 | 15007 ft | 258 kts | 95° |
| 2026-05-08 01:09 | 36.06526 | -85.86545 | 15005 ft | 258 kts | 95° |
| 2026-05-08 01:09 | 36.06352 | -85.84362 | 15005 ft | 258 kts | 95° |
| 2026-05-08 01:09 | 36.06175 | -85.82156 | 15004 ft | 258 kts | 95° |
| 2026-05-08 01:10 | 36.05997 | -85.79947 | 15004 ft | 258 kts | 95° |
| 2026-05-08 01:10 | 36.05820 | -85.77738 | 15004 ft | 258 kts | 95° |
| 2026-05-08 01:10 | 36.05642 | -85.75518 | 15004 ft | 259 kts | 95° |
| 2026-05-08 01:10 | 36.05467 | -85.73326 | 15006 ft | 259 kts | 95° |
| 2026-05-08 01:11 | 36.05288 | -85.71109 | 15005 ft | 259 kts | 95° |
| 2026-05-08 01:11 | 36.05110 | -85.68889 | 15007 ft | 259 kts | 95° |
| 2026-05-08 01:11 | 36.04932 | -85.66665 | 15009 ft | 260 kts | 95° |
| 2026-05-08 01:11 | 36.04754 | -85.64473 | 15007 ft | 259 kts | 95° |
| 2026-05-08 01:12 | 36.04570 | -85.62251 | 15009 ft | 259 kts | 95° |
| 2026-05-08 01:12 | 36.04388 | -85.60043 | 15008 ft | 258 kts | 95° |
| 2026-05-08 01:12 | 36.04208 | -85.57835 | 15008 ft | 258 kts | 95° |
| 2026-05-08 01:12 | 36.04028 | -85.55619 | 15008 ft | 258 kts | 95° |
| 2026-05-08 01:13 | 36.03849 | -85.53435 | 15009 ft | 259 kts | 95° |
| 2026-05-08 01:13 | 36.03667 | -85.51218 | 15010 ft | 259 kts | 95° |
| 2026-05-08 01:13 | 36.03485 | -85.48997 | 15010 ft | 259 kts | 95° |
| 2026-05-08 01:13 | 36.03304 | -85.46803 | 15011 ft | 259 kts | 95° |
| 2026-05-08 01:14 | 36.03118 | -85.44583 | 15008 ft | 259 kts | 95° |
| 2026-05-08 01:14 | 36.02934 | -85.42362 | 15006 ft | 260 kts | 95° |
| 2026-05-08 01:14 | 36.02752 | -85.40136 | 15008 ft | 260 kts | 95° |
| 2026-05-08 01:14 | 36.02568 | -85.37909 | 15009 ft | 260 kts | 95° |
| 2026-05-08 01:15 | 36.02381 | -85.35704 | 15002 ft | 260 kts | 95° |
| 2026-05-08 01:15 | 36.02192 | -85.33487 | 15001 ft | 259 kts | 95° |
| 2026-05-08 01:15 | 36.02009 | -85.31272 | 15004 ft | 259 kts | 95° |
| 2026-05-08 01:15 | 36.01840 | -85.29049 | 15006 ft | 260 kts | 95° |
| 2026-05-08 01:16 | 36.01681 | -85.26822 | 15005 ft | 260 kts | 94° |
| 2026-05-08 01:16 | 36.01517 | -85.24590 | 15005 ft | 260 kts | 95° |
| 2026-05-08 01:16 | 36.01349 | -85.22365 | 15005 ft | 260 kts | 95° |
| 2026-05-08 01:16 | 36.01179 | -85.20170 | 15006 ft | 260 kts | 95° |
| 2026-05-08 01:17 | 36.01006 | -85.17941 | 15007 ft | 260 kts | 95° |
| 2026-05-08 01:17 | 36.00837 | -85.15716 | 15007 ft | 260 kts | 95° |
| 2026-05-08 01:17 | 36.00670 | -85.13511 | 15006 ft | 260 kts | 95° |
| 2026-05-08 01:17 | 36.00499 | -85.11283 | 15006 ft | 260 kts | 95° |
| 2026-05-08 01:18 | 36.00327 | -85.09056 | 15009 ft | 260 kts | 95° |
| 2026-05-08 01:18 | 36.00153 | -85.06825 | 15006 ft | 260 kts | 95° |
| 2026-05-08 01:18 | 35.99982 | -85.04631 | 15005 ft | 259 kts | 95° |
| 2026-05-08 01:18 | 35.99810 | -85.02410 | 15029 ft | 258 kts | 95° |
| 2026-05-08 01:19 | 35.99639 | -85.00199 | 15030 ft | 259 kts | 95° |
| 2026-05-08 01:19 | 35.99467 | -84.97986 | 15030 ft | 259 kts | 95° |
| 2026-05-08 01:19 | 35.99294 | -84.95764 | 15026 ft | 260 kts | 95° |
| 2026-05-08 01:19 | 35.99118 | -84.93538 | 15028 ft | 260 kts | 95° |
| 2026-05-08 01:20 | 35.98944 | -84.91340 | 15026 ft | 260 kts | 95° |
| 2026-05-08 01:20 | 35.98769 | -84.89113 | 15026 ft | 260 kts | 95° |
| 2026-05-08 01:20 | 35.98594 | -84.86892 | 15017 ft | 260 kts | 95° |
| 2026-05-08 01:20 | 35.98416 | -84.84666 | 15027 ft | 260 kts | 95° |
| 2026-05-08 01:21 | 35.98241 | -84.82459 | 15027 ft | 260 kts | 95° |
| 2026-05-08 01:21 | 35.98065 | -84.80231 | 15029 ft | 260 kts | 95° |
| 2026-05-08 01:21 | 35.97889 | -84.77998 | 15032 ft | 261 kts | 95° |
| 2026-05-08 01:21 | 35.97710 | -84.75765 | 15034 ft | 261 kts | 95° |
| 2026-05-08 01:22 | 35.97530 | -84.73535 | 15032 ft | 261 kts | 95° |
| 2026-05-08 01:22 | 35.97351 | -84.71308 | 15030 ft | 260 kts | 95° |
| 2026-05-08 01:22 | 35.97175 | -84.69113 | 15032 ft | 260 kts | 95° |
| 2026-05-08 01:22 | 35.96992 | -84.66886 | 15029 ft | 259 kts | 95° |
| 2026-05-08 01:23 | 35.96810 | -84.64665 | 15031 ft | 260 kts | 95° |
| 2026-05-08 01:23 | 35.96634 | -84.62474 | 15027 ft | 260 kts | 95° |
| 2026-05-08 01:23 | 35.96455 | -84.60247 | 15030 ft | 260 kts | 95° |
| 2026-05-08 01:23 | 35.96275 | -84.58017 | 15029 ft | 261 kts | 95° |
| 2026-05-08 01:24 | 35.96092 | -84.55789 | 15029 ft | 261 kts | 95° |
| 2026-05-08 01:24 | 35.95912 | -84.53582 | 15027 ft | 261 kts | 95° |
| 2026-05-08 01:24 | 35.95729 | -84.51343 | 15025 ft | 261 kts | 95° |
| 2026-05-08 01:24 | 35.95543 | -84.49109 | 15023 ft | 261 kts | 95° |
| 2026-05-08 01:25 | 35.95358 | -84.46879 | 15022 ft | 261 kts | 95° |
| 2026-05-08 01:25 | 35.95178 | -84.44669 | 15021 ft | 261 kts | 95° |
| 2026-05-08 01:25 | 35.94994 | -84.42442 | 15018 ft | 261 kts | 95° |
| 2026-05-08 01:25 | 35.94808 | -84.40204 | 15016 ft | 261 kts | 95° |
| 2026-05-08 01:26 | 35.94622 | -84.37972 | 15011 ft | 261 kts | 95° |
| 2026-05-08 01:26 | 35.94438 | -84.35769 | 15007 ft | 261 kts | 95° |
| 2026-05-08 01:26 | 35.94251 | -84.33542 | 15005 ft | 261 kts | 95° |
| 2026-05-08 01:26 | 35.94062 | -84.31304 | 14995 ft | 261 kts | 95° |
| 2026-05-08 01:27 | 35.93876 | -84.29070 | 14993 ft | 261 kts | 95° |
| 2026-05-08 01:27 | 35.93690 | -84.26839 | 14994 ft | 261 kts | 95° |
| 2026-05-08 01:27 | 35.93504 | -84.24635 | 14993 ft | 261 kts | 95° |
| 2026-05-08 01:27 | 35.93314 | -84.22396 | 14993 ft | 262 kts | 95° |
| 2026-05-08 01:28 | 35.93124 | -84.20155 | 14992 ft | 262 kts | 95° |
| 2026-05-08 01:28 | 35.92939 | -84.17950 | 14991 ft | 262 kts | 95° |
| 2026-05-08 01:28 | 35.92750 | -84.15712 | 14991 ft | 261 kts | 95° |
| 2026-05-08 01:28 | 35.92557 | -84.13475 | 14994 ft | 261 kts | 95° |
| 2026-05-08 01:29 | 35.92364 | -84.11238 | 14990 ft | 261 kts | 95° |
| 2026-05-08 01:29 | 35.92176 | -84.09037 | 14990 ft | 261 kts | 95° |
| 2026-05-08 01:29 | 35.91984 | -84.06801 | 14993 ft | 261 kts | 95° |
| 2026-05-08 01:29 | 35.91793 | -84.04567 | 14992 ft | 261 kts | 95° |
| 2026-05-08 01:30 | 35.91602 | -84.02334 | 14992 ft | 261 kts | 95° |
| 2026-05-08 01:30 | 35.91409 | -84.00106 | 14991 ft | 261 kts | 95° |
| 2026-05-08 01:30 | 35.91217 | -83.97891 | 14991 ft | 261 kts | 95° |
| 2026-05-08 01:30 | 35.91024 | -83.95659 | 15000 ft | 261 kts | 95° |
| 2026-05-08 01:31 | 35.90832 | -83.93449 | 15002 ft | 262 kts | 95° |
| 2026-05-08 01:31 | 35.90637 | -83.91215 | 15003 ft | 262 kts | 96° |
| 2026-05-08 01:31 | 35.90425 | -83.88977 | 15001 ft | 262 kts | 99° |
| 2026-05-08 01:31 | 35.90099 | -83.86765 | 15003 ft | 261 kts | 101° |
| 2026-05-08 01:32 | 35.89785 | -83.84549 | 15002 ft | 261 kts | 99° |
| 2026-05-08 01:32 | 35.89514 | -83.82359 | 15001 ft | 261 kts | 98° |
| 2026-05-08 01:32 | 35.89258 | -83.80136 | 15001 ft | 261 kts | 98° |
| 2026-05-08 01:32 | 35.88997 | -83.77915 | 15004 ft | 261 kts | 98° |
| 2026-05-08 01:33 | 35.88722 | -83.75696 | 15000 ft | 261 kts | 99° |
| 2026-05-08 01:33 | 35.88439 | -83.73510 | 14998 ft | 260 kts | 99° |
| 2026-05-08 01:33 | 35.88151 | -83.71298 | 14999 ft | 261 kts | 99° |
| 2026-05-08 01:33 | 35.87866 | -83.69080 | 15007 ft | 261 kts | 99° |
| 2026-05-08 01:34 | 35.87582 | -83.66862 | 15008 ft | 261 kts | 99° |
| 2026-05-08 01:34 | 35.87302 | -83.64679 | 15013 ft | 261 kts | 99° |
| 2026-05-08 01:34 | 35.87015 | -83.62452 | 15013 ft | 261 kts | 99° |
| 2026-05-08 01:34 | 35.86728 | -83.60234 | 15011 ft | 261 kts | 99° |
| 2026-05-08 01:35 | 35.86537 | -83.58765 | 15012 ft | 261 kts | 99° |
| 2026-05-08 01:35 | 35.86155 | -83.55829 | 15011 ft | 261 kts | 99° |
| 2026-05-08 01:35 | 35.85864 | -83.53610 | 15011 ft | 261 kts | 99° |
| 2026-05-08 01:35 | 35.85671 | -83.52143 | 15011 ft | 261 kts | 99° |
| 2026-05-08 01:36 | 35.85382 | -83.49930 | 15006 ft | 261 kts | 99° |
| 2026-05-08 01:36 | 35.85093 | -83.47716 | 15011 ft | 261 kts | 99° |
| 2026-05-08 01:36 | 35.84805 | -83.45508 | 15012 ft | 261 kts | 99° |
| 2026-05-08 01:36 | 35.84516 | -83.43291 | 15011 ft | 262 kts | 99° |
| 2026-05-08 01:37 | 35.84228 | -83.41096 | 15008 ft | 262 kts | 99° |
| 2026-05-08 01:37 | 35.83935 | -83.38881 | 15008 ft | 262 kts | 99° |
| 2026-05-08 01:37 | 35.83641 | -83.36659 | 15008 ft | 262 kts | 99° |
| 2026-05-08 01:37 | 35.83348 | -83.34437 | 15009 ft | 262 kts | 99° |
| 2026-05-08 01:38 | 35.83054 | -83.32218 | 15007 ft | 261 kts | 99° |
| 2026-05-08 01:38 | 35.82765 | -83.30031 | 15004 ft | 262 kts | 99° |
| 2026-05-08 01:38 | 35.82472 | -83.27813 | 15002 ft | 262 kts | 99° |
| 2026-05-08 01:38 | 35.82178 | -83.25598 | 14997 ft | 261 kts | 99° |
| 2026-05-08 01:39 | 35.81884 | -83.23387 | 15001 ft | 262 kts | 99° |
| 2026-05-08 01:39 | 35.81591 | -83.21188 | 14999 ft | 263 kts | 100° |
| 2026-05-08 01:39 | 35.81294 | -83.18954 | 14995 ft | 263 kts | 100° |
| 2026-05-08 01:39 | 35.80998 | -83.16738 | 15000 ft | 260 kts | 100° |
| 2026-05-08 01:40 | 35.80706 | -83.14554 | 14992 ft | 261 kts | 100° |
| 2026-05-08 01:40 | 35.80410 | -83.12354 | 14997 ft | 260 kts | 100° |
| 2026-05-08 01:40 | 35.80114 | -83.10144 | 14999 ft | 262 kts | 100° |
| 2026-05-08 01:40 | 35.79819 | -83.07931 | 14996 ft | 262 kts | 100° |
| 2026-05-08 01:41 | 35.79521 | -83.05712 | 14999 ft | 263 kts | 100° |
| 2026-05-08 01:41 | 35.79221 | -83.03482 | 14994 ft | 262 kts | 100° |
| 2026-05-08 01:41 | 35.78921 | -83.01269 | 14995 ft | 261 kts | 100° |
| 2026-05-08 01:41 | 35.78625 | -82.99084 | 14993 ft | 262 kts | 100° |
| 2026-05-08 01:42 | 35.78324 | -82.96857 | 14992 ft | 264 kts | 100° |
| 2026-05-08 01:42 | 35.78022 | -82.94622 | 14990 ft | 263 kts | 100° |
| 2026-05-08 01:42 | 35.77724 | -82.92426 | 14985 ft | 262 kts | 100° |
| 2026-05-08 01:42 | 35.77423 | -82.90208 | 14985 ft | 261 kts | 100° |
| 2026-05-08 01:43 | 35.77126 | -82.88001 | 14983 ft | 260 kts | 100° |
| 2026-05-08 01:43 | 35.76825 | -82.85798 | 14988 ft | 261 kts | 101° |
| 2026-05-08 01:43 | 35.76522 | -82.83611 | 14986 ft | 263 kts | 101° |
| 2026-05-08 01:43 | 35.76220 | -82.81398 | 14974 ft | 261 kts | 101° |
| 2026-05-08 01:44 | 35.75918 | -82.79190 | 14986 ft | 261 kts | 101° |
| 2026-05-08 01:44 | 35.75619 | -82.76988 | 14982 ft | 259 kts | 101° |
| 2026-05-08 01:44 | 35.75317 | -82.74796 | 14983 ft | 260 kts | 101° |
| 2026-05-08 01:44 | 35.75011 | -82.72590 | 14984 ft | 261 kts | 101° |
| 2026-05-08 01:45 | 35.74710 | -82.70412 | 14982 ft | 261 kts | 101° |
| 2026-05-08 01:45 | 35.74406 | -82.68206 | 14984 ft | 261 kts | 101° |
| 2026-05-08 01:45 | 35.74102 | -82.65992 | 14982 ft | 262 kts | 101° |
| 2026-05-08 01:45 | 35.73797 | -82.63781 | 14983 ft | 262 kts | 101° |
| 2026-05-08 01:46 | 35.73492 | -82.61571 | 14979 ft | 262 kts | 101° |
| 2026-05-08 01:46 | 35.73189 | -82.59388 | 14979 ft | 261 kts | 101° |
| 2026-05-08 01:46 | 35.72882 | -82.57179 | 14980 ft | 261 kts | 101° |
| 2026-05-08 01:46 | 35.72574 | -82.54972 | 14982 ft | 261 kts | 101° |
| 2026-05-08 01:47 | 35.72267 | -82.52765 | 14984 ft | 262 kts | 101° |
| 2026-05-08 01:47 | 35.71962 | -82.50573 | 14984 ft | 262 kts | 101° |
| 2026-05-08 01:47 | 35.71653 | -82.48354 | 14973 ft | 261 kts | 101° |
| 2026-05-08 01:48 | 35.71037 | -82.43974 | 14978 ft | 262 kts | 101° |
| 2026-05-08 01:48 | 35.70729 | -82.41761 | 14977 ft | 263 kts | 101° |
| 2026-05-08 01:48 | 35.70418 | -82.39540 | 14968 ft | 263 kts | 101° |
| 2026-05-08 01:48 | 35.70107 | -82.37319 | 14973 ft | 263 kts | 101° |
| 2026-05-08 01:49 | 35.69797 | -82.35122 | 14970 ft | 263 kts | 101° |
| 2026-05-08 01:49 | 35.69483 | -82.32903 | 14977 ft | 263 kts | 101° |
| 2026-05-08 01:49 | 35.69164 | -82.30645 | 14859 ft | 269 kts | 101° |
| 2026-05-08 01:49 | 35.68844 | -82.28389 | 14736 ft | 271 kts | 101° |
| 2026-05-08 01:50 | 35.68536 | -82.26234 | 14614 ft | 241 kts | 102° |
| 2026-05-08 01:50 | 35.68261 | -82.24292 | 14458 ft | 220 kts | 101° |
| 2026-05-08 01:50 | 35.67990 | -82.22370 | 14326 ft | 237 kts | 100° |
| 2026-05-08 01:50 | 35.67706 | -82.20361 | 14219 ft | 246 kts | 100° |
| 2026-05-08 01:51 | 35.67369 | -82.18269 | 14117 ft | 252 kts | 109° |
| 2026-05-08 01:51 | 35.66592 | -82.16312 | 13896 ft | 255 kts | 124° |
| 2026-05-08 01:51 | 35.65766 | -82.14447 | 13650 ft | 240 kts | 121° |
| 2026-05-08 01:51 | 35.65071 | -82.12589 | 13392 ft | 243 kts | 117° |
| 2026-05-08 01:52 | 35.64390 | -82.10665 | 13135 ft | 245 kts | 117° |
| 2026-05-08 01:52 | 35.63693 | -82.08739 | 12879 ft | 245 kts | 118° |
| 2026-05-08 01:52 | 35.62981 | -82.06863 | 12635 ft | 244 kts | 119° |
| 2026-05-08 01:52 | 35.62248 | -82.04980 | 12382 ft | 243 kts | 119° |
| 2026-05-08 01:53 | 35.61517 | -82.03109 | 12134 ft | 241 kts | 119° |
| 2026-05-08 01:53 | 35.60798 | -82.01249 | 11885 ft | 239 kts | 119° |
| 2026-05-08 01:53 | 35.60090 | -81.99409 | 11643 ft | 237 kts | 119° |
| 2026-05-08 01:53 | 35.59396 | -81.97603 | 11394 ft | 235 kts | 119° |
| 2026-05-08 01:54 | 35.58698 | -81.95794 | 11154 ft | 233 kts | 119° |
| 2026-05-08 01:54 | 35.58002 | -81.94001 | 10910 ft | 231 kts | 119° |
| 2026-05-08 01:54 | 35.57315 | -81.92232 | 10671 ft | 229 kts | 119° |
| 2026-05-08 01:54 | 35.56632 | -81.90473 | 10432 ft | 227 kts | 120° |
| 2026-05-08 01:55 | 35.55961 | -81.88743 | 10194 ft | 226 kts | 120° |
| 2026-05-08 01:55 | 35.55287 | -81.87011 | 9953 ft | 222 kts | 120° |
| 2026-05-08 01:55 | 35.54629 | -81.85315 | 9684 ft | 217 kts | 120° |
| 2026-05-08 01:55 | 35.53981 | -81.83645 | 9443 ft | 215 kts | 120° |
| 2026-05-08 01:56 | 35.53343 | -81.82013 | 9175 ft | 213 kts | 120° |
| 2026-05-08 01:56 | 35.52702 | -81.80376 | 8980 ft | 209 kts | 120° |
| 2026-05-08 01:56 | 35.52080 | -81.78779 | 8969 ft | 207 kts | 119° |
| 2026-05-08 01:56 | 35.51464 | -81.77188 | 8962 ft | 206 kts | 119° |
| 2026-05-08 01:57 | 35.50841 | -81.75593 | 8964 ft | 208 kts | 120° |
| 2026-05-08 01:57 | 35.50207 | -81.73979 | 8961 ft | 211 kts | 120° |
| 2026-05-08 01:57 | 35.49566 | -81.72350 | 8963 ft | 212 kts | 120° |
| 2026-05-08 01:57 | 35.48930 | -81.70732 | 8958 ft | 213 kts | 120° |
| 2026-05-08 01:58 | 35.48287 | -81.69088 | 8958 ft | 213 kts | 120° |
| 2026-05-08 01:58 | 35.47644 | -81.67436 | 8955 ft | 214 kts | 120° |
| 2026-05-08 01:58 | 35.47000 | -81.65787 | 8943 ft | 214 kts | 120° |
| 2026-05-08 01:58 | 35.46361 | -81.64155 | 8946 ft | 214 kts | 120° |
| 2026-05-08 01:59 | 35.45714 | -81.62504 | 8945 ft | 214 kts | 120° |
| 2026-05-08 01:59 | 35.45058 | -81.60844 | 8705 ft | 217 kts | 121° |
| 2026-05-08 01:59 | 35.44392 | -81.59170 | 8455 ft | 218 kts | 120° |
| 2026-05-08 01:59 | 35.43726 | -81.57489 | 8200 ft | 219 kts | 120° |
| 2026-05-08 02:00 | 35.43067 | -81.55814 | 7952 ft | 218 kts | 120° |
| 2026-05-08 02:00 | 35.42400 | -81.54120 | 7708 ft | 223 kts | 120° |
| 2026-05-08 02:00 | 35.41726 | -81.52421 | 7464 ft | 219 kts | 119° |
| 2026-05-08 02:00 | 35.41066 | -81.50738 | 7224 ft | 217 kts | 118° |
| 2026-05-08 02:01 | 35.40373 | -81.49137 | 6981 ft | 213 kts | 128° |
| 2026-05-08 02:01 | 35.39350 | -81.47870 | 6738 ft | 205 kts | 149° |
| 2026-05-08 02:01 | 35.38189 | -81.46857 | 6501 ft | 204 kts | 147° |
| 2026-05-08 02:01 | 35.37155 | -81.45693 | 6255 ft | 202 kts | 137° |
| 2026-05-08 02:02 | 35.36252 | -81.44483 | 6003 ft | 184 kts | 135° |
| 2026-05-08 02:02 | 35.35404 | -81.43355 | 5731 ft | 180 kts | 136° |
| 2026-05-08 02:02 | 35.34521 | -81.42244 | 5471 ft | 183 kts | 137° |
| 2026-05-08 02:02 | 35.33627 | -81.41156 | 5229 ft | 184 kts | 137° |
| 2026-05-08 02:03 | 35.32712 | -81.40047 | 4979 ft | 185 kts | 136° |
| 2026-05-08 02:03 | 35.31797 | -81.38933 | 4732 ft | 185 kts | 135° |
| 2026-05-08 02:03 | 35.30883 | -81.37815 | 4474 ft | 186 kts | 134° |
| 2026-05-08 02:03 | 35.29973 | -81.36692 | 4221 ft | 185 kts | 134° |
| 2026-05-08 02:04 | 35.29043 | -81.35537 | 3964 ft | 200 kts | 134° |
| 2026-05-08 02:04 | 35.28029 | -81.34307 | 3725 ft | 209 kts | 134° |
| 2026-05-08 02:04 | 35.26978 | -81.33045 | 3489 ft | 213 kts | 134° |
| 2026-05-08 02:04 | 35.25942 | -81.31788 | 3245 ft | 205 kts | 132° |
| 2026-05-08 02:05 | 35.24977 | -81.30553 | 3003 ft | 201 kts | 130° |
| 2026-05-08 02:05 | 35.24031 | -81.29347 | 2972 ft | 189 kts | 131° |
| 2026-05-08 02:05 | 35.23134 | -81.28222 | 2965 ft | 180 kts | 131° |
| 2026-05-08 02:05 | 35.22276 | -81.27160 | 2965 ft | 176 kts | 131° |
| 2026-05-08 02:06 | 35.21423 | -81.26119 | 2974 ft | 170 kts | 131° |
| 2026-05-08 02:06 | 35.20593 | -81.25105 | 2969 ft | 166 kts | 131° |
| 2026-05-08 02:06 | 35.19782 | -81.24114 | 2975 ft | 163 kts | 131° |
| 2026-05-08 02:06 | 35.18990 | -81.23150 | 2969 ft | 162 kts | 131° |
| 2026-05-08 02:07 | 35.18174 | -81.22154 | 2980 ft | 171 kts | 131° |
| 2026-05-08 02:07 | 35.17305 | -81.21096 | 2987 ft | 180 kts | 131° |
| 2026-05-08 02:07 | 35.16396 | -81.19998 | 2997 ft | 185 kts | 131° |
| 2026-05-08 02:07 | 35.15473 | -81.18878 | 2987 ft | 188 kts | 131° |
| 2026-05-08 02:08 | 35.14545 | -81.17742 | 2991 ft | 190 kts | 131° |
| 2026-05-08 02:08 | 35.13613 | -81.16596 | 2994 ft | 191 kts | 131° |
| 2026-05-08 02:08 | 35.12686 | -81.15456 | 2990 ft | 191 kts | 131° |
| 2026-05-08 02:08 | 35.11746 | -81.14304 | 2986 ft | 191 kts | 131° |
| 2026-05-08 02:09 | 35.10802 | -81.13152 | 2984 ft | 192 kts | 131° |
| 2026-05-08 02:09 | 35.09861 | -81.11999 | 2987 ft | 191 kts | 131° |
| 2026-05-08 02:09 | 35.08924 | -81.10846 | 2980 ft | 191 kts | 131° |
| 2026-05-08 02:09 | 35.07995 | -81.09708 | 2982 ft | 191 kts | 131° |
| 2026-05-08 02:10 | 35.07046 | -81.08555 | 2974 ft | 192 kts | 131° |
| 2026-05-08 02:10 | 35.06096 | -81.07398 | 2975 ft | 193 kts | 131° |
| 2026-05-08 02:10 | 35.05070 | -81.06364 | 2969 ft | 196 kts | 148° |
| 2026-05-08 02:10 | 35.03741 | -81.05937 | 2958 ft | 199 kts | 174° |
| 2026-05-08 02:11 | 35.02362 | -81.05870 | 2960 ft | 198 kts | 179° |
| 2026-05-08 02:11 | 35.00979 | -81.05867 | 2956 ft | 198 kts | 180° |
| 2026-05-08 02:11 | 34.99596 | -81.05878 | 2954 ft | 198 kts | 180° |
| 2026-05-08 02:11 | 34.98239 | -81.05783 | 2942 ft | 197 kts | 162° |
| 2026-05-08 02:12 | 34.97177 | -81.04840 | 2952 ft | 188 kts | 119° |
| 2026-05-08 02:12 | 34.96585 | -81.03442 | 2956 ft | 185 kts | 109° |
| 2026-05-08 02:12 | 34.96055 | -81.02202 | 3075 ft | 141 kts | 135° |
| 2026-05-08 02:12 | 34.95278 | -81.01911 | 3123 ft | 116 kts | 212° |
| 2026-05-08 02:13 | 34.94772 | -81.02639 | 2711 ft | 113 kts | 277° |
| 2026-05-08 02:13 | 34.94955 | -81.03472 | 2441 ft | 96 kts | 322° |
| 2026-05-08 02:13 | 34.95385 | -81.04134 | 2135 ft | 102 kts | 314° |
| 2026-05-08 02:13 | 34.95769 | -81.04858 | 1864 ft | 101 kts | 309° |
| 2026-05-08 02:14 | 34.96134 | -81.05592 | 1528 ft | 100 kts | 317° |
| 2026-05-08 02:14 | 34.96625 | -81.06108 | 1252 ft | 89 kts | 355° |
| 2026-05-08 02:14 | 34.97207 | -81.06109 | 953 ft | 81 kts | 15° |
| 2026-05-08 02:14 | 34.97730 | -81.05977 | 823 ft | 70 kts | 15° |
| 2026-05-08 02:15 | 34.97964 | -81.05905 | 683 ft | 0 kts | 73° |